createdAt,value
2017-08-25T00:00:50.974Z,5.80
2017-08-25T00:03:17.872Z,5.70
2017-08-25T00:05:44.669Z,5.53
2017-08-25T00:08:11.500Z,5.40
2017-08-25T00:10:38.327Z,5.73
2017-08-25T00:13:05.142Z,4.80
2017-08-25T00:15:31.923Z,6.10
2017-08-25T00:17:59.754Z,6.10
2017-08-25T00:20:26.603Z,5.40
2017-08-25T00:22:53.441Z,5.90
2017-08-25T00:25:21.078Z,5.37
2017-08-25T00:27:47.943Z,5.40
2017-08-25T00:30:14.783Z,5.27
2017-08-25T00:32:41.616Z,5.80
2017-08-25T00:35:08.398Z,5.90
2017-08-25T00:37:36.027Z,5.63
2017-08-25T00:40:02.892Z,5.83
2017-08-25T00:42:29.755Z,5.53
2017-08-25T00:44:56.582Z,6.40
2017-08-25T00:47:23.507Z,5.90
2017-08-25T00:49:50.319Z,6.27
2017-08-25T00:52:17.152Z,6.03
2017-08-25T00:54:44.733Z,5.97
2017-08-25T00:57:11.586Z,6.83
2017-08-25T00:59:38.527Z,7.27
2017-08-25T01:02:05.626Z,7.10
2017-08-25T01:04:32.456Z,6.80
2017-08-25T01:06:59.312Z,6.80
2017-08-25T01:09:26.188Z,7.30
2017-08-25T01:11:52.990Z,6.97
2017-08-25T01:14:19.812Z,6.70
2017-08-25T01:16:46.712Z,7.10
2017-08-25T01:19:13.552Z,6.63
2017-08-25T01:21:40.398Z,7.07
2017-08-25T01:24:07.226Z,7.20
2017-08-25T01:26:34.074Z,6.70
2017-08-25T01:29:00.927Z,6.90
2017-08-25T01:31:27.822Z,6.80
2017-08-25T01:33:54.668Z,7.07
2017-08-25T01:36:21.548Z,7.10
2017-08-25T01:38:48.719Z,6.90
2017-08-25T01:41:15.561Z,7.50
2017-08-25T01:43:42.416Z,6.63
2017-08-25T01:46:09.341Z,6.90
2017-08-25T01:48:36.206Z,7.13
2017-08-25T01:51:03.071Z,7.50
2017-08-25T01:53:29.967Z,7.00
2017-08-25T01:55:56.810Z,6.73
2017-08-25T01:58:23.690Z,7.60
2017-08-25T02:00:50.535Z,6.60
2017-08-25T02:03:17.382Z,6.80
2017-08-25T02:05:44.196Z,6.80
2017-08-25T02:08:11.088Z,6.83
2017-08-25T02:10:37.909Z,6.67
2017-08-25T02:13:04.714Z,6.70
2017-08-25T02:15:31.607Z,6.67
2017-08-25T02:17:58.460Z,6.80
2017-08-25T02:20:25.301Z,7.50
2017-08-25T02:22:52.177Z,6.40
2017-08-25T02:25:19.017Z,6.90
2017-08-25T02:27:45.808Z,6.60
2017-08-25T02:30:12.682Z,7.43
2017-08-25T02:32:43.354Z,6.70
2017-08-25T02:35:10.190Z,6.73
2017-08-25T02:37:37.006Z,6.33
2017-08-25T02:40:03.883Z,6.10
2017-08-25T02:42:30.666Z,6.73
2017-08-25T02:44:57.525Z,5.77
2017-08-25T02:47:24.385Z,6.43
2017-08-25T02:49:51.231Z,6.57
2017-08-25T02:52:18.065Z,6.00
2017-08-25T02:54:44.936Z,6.10
2017-08-25T02:57:11.747Z,6.30
2017-08-25T02:59:38.614Z,5.60
2017-08-25T03:02:05.483Z,5.80
2017-08-25T03:04:32.261Z,5.80
2017-08-25T03:06:59.089Z,5.93
2017-08-25T03:09:25.934Z,5.83
2017-08-25T03:14:26.136Z,5.83
2017-08-25T03:16:52.977Z,5.83
2017-08-25T03:19:19.783Z,5.97
2017-08-25T03:21:47.532Z,5.70
2017-08-25T03:24:14.317Z,6.30
2017-08-25T03:26:41.186Z,6.70
2017-08-25T03:29:08.056Z,6.23
2017-08-25T03:31:34.903Z,6.10
2017-08-25T03:34:01.772Z,6.07
2017-08-25T03:36:28.686Z,6.23
2017-08-25T03:38:55.564Z,6.77
2017-08-25T03:41:22.439Z,6.30
2017-08-25T03:43:49.314Z,6.37
2017-08-25T03:46:16.144Z,6.90
2017-08-25T03:48:42.998Z,6.30
2017-08-25T03:51:09.868Z,6.60
2017-08-25T03:53:36.705Z,6.10
2017-08-25T03:56:03.537Z,6.57
2017-08-25T03:58:30.455Z,7.53
2017-08-25T04:00:57.308Z,7.23
2017-08-25T04:03:24.146Z,6.53
2017-08-25T04:05:51.030Z,7.50
2017-08-25T04:08:17.871Z,6.87
2017-08-25T04:10:44.660Z,6.90
2017-08-25T04:13:11.540Z,6.60
2017-08-25T04:15:38.334Z,6.60
2017-08-25T04:18:05.212Z,6.70
2017-08-25T04:20:32.048Z,7.00
2017-08-25T04:22:58.891Z,6.67
2017-08-25T04:25:25.720Z,7.13
2017-08-25T04:27:52.537Z,6.50
2017-08-25T04:30:19.327Z,6.60
2017-08-25T04:32:46.141Z,6.53
2017-08-25T04:35:13.031Z,6.50
2017-08-25T04:37:39.872Z,6.20
2017-08-25T04:40:06.646Z,7.03
2017-08-25T04:42:33.759Z,6.63
2017-08-25T04:45:01.299Z,7.10
2017-08-25T04:47:28.127Z,6.20
2017-08-25T04:49:54.977Z,6.67
2017-08-25T04:52:21.754Z,6.17
2017-08-25T04:54:48.570Z,7.07
2017-08-25T04:57:15.524Z,7.90
2017-08-25T04:59:42.334Z,7.77
2017-08-25T05:02:09.176Z,7.70
2017-08-25T05:04:36.042Z,7.73
2017-08-25T05:07:02.843Z,7.60
2017-08-25T05:09:29.655Z,8.27
2017-08-25T05:11:56.526Z,7.17
2017-08-25T05:14:23.297Z,7.10
2017-08-25T06:38:46.636Z,7.20
2017-08-25T06:41:13.445Z,7.83
2017-08-25T06:43:40.268Z,7.83
2017-08-25T06:46:07.134Z,8.47
2017-08-25T06:48:33.954Z,7.27
2017-08-25T06:51:00.725Z,8.03
2017-08-25T06:53:27.600Z,8.50
2017-08-25T06:55:54.420Z,8.00
2017-08-25T06:58:21.240Z,8.40
2017-08-25T07:00:48.128Z,8.60
2017-08-25T07:03:14.907Z,8.17
2017-08-25T07:05:41.674Z,7.93
2017-08-25T07:08:08.542Z,7.60
2017-08-25T07:10:35.380Z,7.93
2017-08-25T07:13:02.198Z,7.90
2017-08-25T07:15:29.046Z,8.20
2017-08-25T07:17:55.859Z,7.33
2017-08-25T07:20:22.680Z,7.80
2017-08-25T07:22:49.835Z,7.30
2017-08-25T07:25:16.674Z,7.13
2017-08-25T07:27:43.510Z,7.20
2017-08-25T07:30:10.345Z,7.17
2017-08-25T07:32:37.172Z,6.90
2017-08-25T07:35:04.010Z,7.20
2017-08-25T07:37:30.938Z,6.43
2017-08-25T07:39:58.261Z,5.73
2017-08-25T07:42:25.128Z,5.60
2017-08-25T07:44:51.999Z,5.60
2017-08-25T07:47:18.798Z,5.77
2017-08-25T07:49:45.648Z,5.87
2017-08-25T07:52:12.534Z,5.80
2017-08-25T07:54:39.314Z,5.60
2017-08-25T07:57:06.107Z,5.90
2017-08-25T07:59:33.695Z,6.27
2017-08-25T08:02:01.373Z,6.40
2017-08-25T08:04:28.292Z,6.10
2017-08-25T08:06:55.138Z,6.17
2017-08-25T08:09:22.689Z,6.00
2017-08-25T08:11:49.592Z,6.00
2017-08-25T08:14:16.441Z,5.73
2017-08-25T08:16:43.290Z,5.90
2017-08-25T08:19:10.141Z,5.73
2017-08-25T08:21:36.965Z,6.40
2017-08-25T08:24:03.819Z,6.20
2017-08-25T08:26:30.621Z,6.50
2017-08-25T08:28:57.494Z,6.27
2017-08-25T08:31:24.312Z,5.90
2017-08-25T08:33:51.164Z,5.97
2017-08-25T08:36:33.863Z,6.03
2017-08-25T08:39:00.688Z,5.90
2017-08-25T08:41:27.502Z,5.80
2017-08-25T08:43:54.313Z,5.77
2017-08-25T08:46:21.159Z,6.27
2017-08-25T08:48:47.966Z,5.30
2017-08-25T08:51:14.835Z,5.80
2017-08-25T08:53:41.680Z,5.70
2017-08-25T08:56:08.449Z,5.67
2017-08-25T08:58:35.262Z,6.40
2017-08-25T09:01:02.105Z,6.00
2017-08-25T09:03:28.932Z,5.40
2017-08-25T09:06:01.512Z,5.80
2017-08-25T09:08:28.327Z,5.63
2017-08-25T09:10:56.051Z,6.27
2017-08-25T09:15:56.013Z,5.03
2017-08-25T09:18:22.872Z,5.37
2017-08-25T09:20:49.682Z,5.83
2017-08-25T09:23:16.512Z,6.07
2017-08-25T09:25:43.406Z,6.20
2017-08-25T09:28:10.242Z,6.37
2017-08-25T09:30:37.078Z,6.43
2017-08-25T09:33:03.932Z,5.80
2017-08-25T09:35:30.773Z,5.70
2017-08-25T09:37:57.574Z,5.03
2017-08-25T09:40:24.747Z,6.40
2017-08-25T09:42:51.517Z,6.47
2017-08-25T09:45:18.354Z,5.90
2017-08-25T09:47:45.287Z,5.57
2017-08-25T09:50:12.106Z,5.50
2017-08-25T09:52:38.890Z,5.70
2017-08-25T09:55:05.764Z,5.30
2017-08-25T09:57:32.578Z,5.33
2017-08-25T09:59:59.402Z,5.50
2017-08-25T10:02:26.206Z,5.70
2017-08-25T10:04:53.022Z,5.13
2017-08-25T10:07:19.791Z,4.90
2017-08-25T10:09:46.609Z,4.63
2017-08-25T10:12:13.506Z,4.70
2017-08-25T10:14:40.277Z,4.60
2017-08-25T10:17:07.168Z,4.67
2017-08-25T10:19:33.970Z,4.87
2017-08-25T10:22:00.795Z,4.50
2017-08-25T10:24:27.674Z,4.77
2017-08-25T10:26:54.484Z,4.83
2017-08-25T10:29:21.271Z,4.83
2017-08-25T10:31:48.148Z,4.90
2017-08-25T10:34:21.195Z,4.97
2017-08-25T10:36:53.999Z,4.70
2017-08-25T10:39:26.753Z,5.20
2017-08-25T10:41:59.624Z,4.80
2017-08-25T10:44:32.269Z,4.40
2017-08-25T10:46:59.084Z,4.60
2017-08-25T10:49:25.965Z,4.47
2017-08-25T10:51:52.875Z,4.93
2017-08-25T10:54:19.709Z,4.90
2017-08-25T10:56:46.518Z,5.43
2017-08-25T10:59:13.285Z,4.40
2017-08-25T11:01:40.163Z,4.60
2017-08-25T11:04:06.992Z,5.20
2017-08-25T11:06:33.857Z,4.50
2017-08-25T11:09:00.742Z,4.97
2017-08-25T11:11:27.543Z,4.87
2017-08-25T11:13:54.374Z,4.00
2017-08-25T11:16:21.589Z,4.67
2017-08-25T11:18:48.398Z,4.60
2017-08-25T11:21:15.203Z,4.17
2017-08-25T11:23:42.076Z,4.27
2017-08-25T11:26:08.845Z,4.00
2017-08-25T11:28:35.664Z,3.80
2017-08-25T11:31:02.486Z,4.23
2017-08-25T11:33:30.310Z,3.93
2017-08-25T11:35:58.186Z,4.40
2017-08-25T11:38:25.131Z,4.10
2017-08-25T11:40:51.934Z,4.50
2017-08-25T11:43:18.738Z,4.50
2017-08-25T11:45:45.596Z,4.37
2017-08-25T11:48:12.403Z,4.90
2017-08-25T11:50:39.223Z,4.77
2017-08-25T11:53:06.099Z,4.50
2017-08-25T11:55:32.874Z,5.30
2017-08-25T11:57:59.710Z,4.70
2017-08-25T12:00:26.600Z,4.40
2017-08-25T12:02:53.385Z,4.37
2017-08-25T12:05:20.227Z,4.10
2017-08-25T12:07:47.112Z,4.80
2017-08-25T12:10:13.936Z,4.50
2017-08-25T12:12:40.778Z,4.93
2017-08-25T12:15:07.643Z,5.27
2017-08-25T12:17:34.471Z,4.80
2017-08-25T12:20:01.237Z,5.27
2017-08-25T12:22:28.032Z,4.50
2017-08-25T12:24:54.875Z,4.80
2017-08-25T12:27:21.705Z,5.07
2017-08-25T12:29:48.539Z,5.20
2017-08-25T12:32:15.312Z,4.77
2017-08-25T12:34:42.136Z,5.10
2017-08-25T12:37:09.017Z,4.47
2017-08-25T12:39:35.877Z,4.63
2017-08-25T12:42:02.690Z,5.00
2017-08-25T12:44:29.601Z,4.90
2017-08-25T12:46:56.397Z,5.17
2017-08-25T12:49:23.177Z,5.20
2017-08-25T12:51:49.981Z,4.53
2017-08-25T12:54:16.819Z,5.20
2017-08-25T12:56:43.636Z,5.00
2017-08-25T12:59:10.479Z,5.10
2017-08-25T13:01:37.257Z,4.67
2017-08-25T13:04:04.093Z,5.00
2017-08-25T13:06:30.971Z,4.70
2017-08-25T13:08:57.773Z,5.10
2017-08-25T13:11:24.574Z,5.03
2017-08-25T13:13:51.448Z,5.40
2017-08-25T13:16:18.254Z,5.13
2017-08-25T13:18:45.030Z,5.03
2017-08-25T13:21:11.988Z,5.47
2017-08-25T13:23:38.816Z,5.00
2017-08-25T13:26:05.614Z,5.37
2017-08-25T13:28:32.470Z,5.73
2017-08-25T13:30:59.271Z,5.50
2017-08-25T13:33:26.088Z,5.50
2017-08-25T13:35:53.155Z,5.30
2017-08-25T13:38:19.999Z,4.90
2017-08-25T13:40:46.812Z,5.20
2017-08-25T13:43:13.661Z,5.27
2017-08-25T13:45:40.494Z,5.27
2017-08-25T13:48:07.261Z,4.90
2017-08-25T13:50:34.183Z,5.10
2017-08-25T13:53:00.953Z,5.90
2017-08-25T13:55:27.754Z,5.40
2017-08-25T13:57:54.601Z,5.30
2017-08-25T14:00:21.436Z,5.20
2017-08-25T14:02:48.210Z,5.63
2017-08-25T14:05:15.023Z,5.70
2017-08-25T14:07:41.825Z,5.00
2017-08-25T14:10:08.627Z,5.40
2017-08-25T14:12:35.499Z,5.03
2017-08-25T14:15:02.316Z,4.80
2017-08-25T14:17:29.136Z,5.30
2017-08-25T14:19:56.026Z,5.10
2017-08-25T14:22:22.867Z,5.20
2017-08-25T14:24:49.723Z,5.70
2017-08-25T14:27:16.599Z,5.47
2017-08-25T14:29:43.439Z,5.67
2017-08-25T14:32:10.264Z,6.13
2017-08-25T14:34:37.151Z,5.20
2017-08-25T14:37:03.975Z,4.77
2017-08-25T14:39:30.791Z,5.37
2017-08-25T14:41:57.638Z,4.80
2017-08-25T14:44:24.414Z,5.30
2017-08-25T14:46:51.489Z,5.60
2017-08-25T14:49:18.341Z,5.50
2017-08-25T14:51:45.176Z,5.30
2017-08-25T14:54:11.991Z,5.23
2017-08-25T14:56:38.809Z,5.63
2017-08-25T14:59:05.589Z,5.50
2017-08-25T15:01:32.394Z,5.07
2017-08-25T15:03:59.211Z,5.00
2017-08-25T15:06:26.092Z,5.60
2017-08-25T15:08:52.889Z,5.63
2017-08-25T15:11:19.738Z,5.10
2017-08-25T15:13:46.573Z,6.03
2017-08-25T15:16:13.352Z,5.37
2017-08-25T15:18:40.242Z,5.80
2017-08-25T15:21:07.060Z,6.00
2017-08-25T15:23:33.890Z,5.63
2017-08-25T15:26:00.693Z,5.40
2017-08-25T15:28:27.519Z,5.10
2017-08-25T15:30:54.291Z,5.50
2017-08-25T15:33:21.142Z,5.33
2017-08-25T15:35:47.975Z,6.20
2017-08-25T15:38:14.794Z,6.60
2017-08-25T15:40:41.607Z,6.40
2017-08-25T15:43:08.377Z,5.60
2017-08-25T15:45:35.190Z,5.77
2017-08-25T15:48:02.030Z,6.43
2017-08-25T15:50:28.865Z,5.80
2017-08-25T15:52:55.639Z,5.37
2017-08-25T15:55:22.521Z,5.53
2017-08-25T15:57:49.361Z,5.50
2017-08-25T16:00:16.199Z,5.10
2017-08-25T16:02:43.006Z,5.63
2017-08-25T16:05:09.801Z,5.50
2017-08-25T16:07:36.610Z,5.30
2017-08-25T16:10:03.467Z,6.00
2017-08-25T16:12:30.293Z,5.60
2017-08-25T16:14:57.743Z,5.70
2017-08-25T16:17:24.591Z,6.00
2017-08-25T16:19:51.408Z,5.07
2017-08-25T16:22:18.182Z,5.57
2017-08-25T16:24:45.039Z,5.40
2017-08-25T16:27:11.811Z,5.37
2017-08-25T16:29:38.587Z,6.10
2017-08-25T16:32:05.448Z,5.50
2017-08-25T16:34:32.214Z,6.20
2017-08-25T16:36:59.042Z,5.77
2017-08-25T16:39:25.930Z,5.80
2017-08-25T16:41:52.769Z,5.50
2017-08-25T16:44:19.574Z,5.23
2017-08-25T16:46:46.516Z,5.50
2017-08-25T16:49:13.350Z,5.80
2017-08-25T16:51:40.151Z,5.70
2017-08-25T16:54:06.993Z,6.10
2017-08-25T16:56:33.802Z,6.00
2017-08-25T16:59:00.570Z,6.13
2017-08-25T17:01:27.444Z,5.93
2017-08-25T17:03:54.257Z,6.60
2017-08-25T17:06:21.087Z,5.20
2017-08-25T17:08:47.907Z,4.80
2017-08-25T17:11:14.682Z,5.67
2017-08-25T17:13:41.519Z,5.87
2017-08-25T17:16:08.370Z,5.87
2017-08-25T17:18:35.184Z,6.60
2017-08-25T17:21:01.967Z,6.07
2017-08-25T17:23:28.784Z,6.10
2017-08-25T17:25:55.626Z,5.70
2017-08-25T17:28:22.459Z,5.93
2017-08-25T17:30:49.369Z,5.90
2017-08-25T17:33:16.141Z,5.93
2017-08-25T17:35:42.951Z,5.40
2017-08-25T17:38:09.762Z,6.10
2017-08-25T17:40:36.576Z,6.60
2017-08-25T17:43:03.426Z,5.60
2017-08-25T17:45:30.233Z,5.67
2017-08-25T17:47:57.058Z,6.00
2017-08-25T17:50:23.861Z,6.60
2017-08-25T17:52:50.673Z,6.10
2017-08-25T17:55:37.182Z,5.80
2017-08-25T17:58:04.810Z,5.50
2017-08-25T18:00:32.360Z,6.60
2017-08-25T18:03:00.031Z,6.70
2017-08-25T18:05:27.549Z,6.57
2017-08-25T18:07:55.144Z,6.93
2017-08-25T18:10:22.664Z,7.23
2017-08-25T18:12:50.260Z,7.00
2017-08-25T18:15:17.797Z,6.67
2017-08-25T18:17:45.333Z,7.17
2017-08-25T18:20:12.884Z,7.60
2017-08-25T18:22:40.387Z,8.20
2017-08-25T18:25:07.911Z,7.70
2017-08-25T18:27:35.798Z,7.30
2017-08-25T18:30:03.381Z,7.20
2017-08-25T18:32:30.931Z,7.27
2017-08-25T18:34:58.599Z,7.90
2017-08-25T18:37:26.109Z,7.73
2017-08-25T18:39:54.589Z,6.53
2017-08-25T18:42:22.191Z,7.40
2017-08-25T18:44:49.747Z,8.73
2017-08-25T18:47:17.308Z,7.77
2017-08-25T18:49:44.859Z,8.23
2017-08-25T18:52:12.434Z,10.53
2017-08-25T18:54:39.956Z,11.70
2017-08-25T18:57:07.480Z,11.70
2017-08-25T18:59:34.972Z,9.90
2017-08-25T19:02:02.514Z,10.80
2017-08-25T19:04:30.099Z,13.20
2017-08-25T19:06:57.633Z,9.67
2017-08-25T19:09:25.194Z,10.10
2017-08-25T19:11:52.726Z,7.80
2017-08-25T19:14:20.233Z,7.93
2017-08-25T19:16:48.661Z,11.37
2017-08-25T19:19:16.192Z,8.30
2017-08-25T19:21:43.729Z,7.67
2017-08-25T19:24:11.272Z,8.80
2017-08-25T19:26:38.861Z,9.50
2017-08-25T19:29:06.360Z,10.03
2017-08-25T19:31:33.846Z,9.97
2017-08-25T19:34:01.409Z,8.10
2017-08-25T19:36:28.887Z,7.30
2017-08-25T19:38:56.406Z,7.67
2017-08-25T19:41:24.010Z,7.93
2017-08-25T19:43:51.542Z,10.13
2017-08-25T19:46:19.069Z,9.80
2017-08-25T19:48:46.635Z,9.30
2017-08-25T19:51:14.148Z,9.80
2017-08-25T19:53:41.686Z,10.00
2017-08-25T19:56:09.278Z,11.03
2017-08-25T19:58:36.832Z,8.97
2017-08-25T20:01:05.079Z,8.77
2017-08-25T20:03:32.667Z,9.00
2017-08-25T20:06:00.223Z,10.77
2017-08-25T20:08:27.788Z,10.17
2017-08-25T20:10:55.313Z,10.40
2017-08-25T20:13:22.111Z,10.90
2017-08-25T20:15:48.928Z,8.63
2017-08-25T20:18:15.741Z,9.20
2017-08-25T20:20:42.560Z,11.00
2017-08-25T20:23:09.447Z,11.10
2017-08-25T20:25:36.326Z,11.13
2017-08-25T20:28:03.239Z,10.73
2017-08-25T20:30:30.063Z,10.40
2017-08-25T20:32:56.933Z,11.43
2017-08-25T20:35:23.752Z,10.70
2017-08-25T20:37:50.531Z,10.70
2017-08-25T20:40:17.411Z,10.17
2017-08-25T20:42:44.393Z,9.87
2017-08-25T20:45:11.212Z,9.97
2017-08-25T20:47:38.026Z,9.47
2017-08-25T20:50:04.914Z,9.50
2017-08-25T20:52:31.863Z,9.50
2017-08-25T20:54:58.686Z,8.00
2017-08-25T20:57:25.486Z,9.73
2017-08-25T20:59:52.308Z,8.90
2017-08-25T21:02:19.154Z,9.50
2017-08-25T21:04:45.969Z,9.43
2017-08-25T21:07:12.813Z,10.10
2017-08-25T21:09:39.672Z,9.57
2017-08-25T21:12:06.494Z,10.57
2017-08-25T21:14:33.294Z,9.80
2017-08-25T21:17:00.121Z,8.70
2017-08-25T21:19:26.926Z,9.23
2017-08-25T21:21:53.701Z,8.97
2017-08-25T21:24:20.543Z,9.23
2017-08-25T21:26:47.376Z,8.70
2017-08-25T21:29:14.224Z,8.10
2017-08-25T21:31:41.084Z,8.60
2017-08-25T21:34:07.872Z,8.77
2017-08-25T21:36:34.702Z,7.73
2017-08-25T21:39:01.593Z,8.30
2017-08-25T21:41:28.425Z,8.03
2017-08-25T21:43:55.193Z,8.10
2017-08-25T21:46:22.074Z,8.40
2017-08-25T21:48:48.888Z,7.40
2017-08-25T21:51:15.686Z,7.90
2017-08-25T21:53:42.488Z,6.90
2017-08-25T21:56:09.314Z,6.87
2017-08-25T21:58:36.081Z,7.70
2017-08-25T22:01:02.967Z,6.77
2017-08-25T22:03:29.812Z,7.83
2017-08-25T22:05:56.585Z,7.27
2017-08-25T22:08:23.459Z,7.10
2017-08-25T22:10:50.282Z,7.33
2017-08-25T22:13:17.093Z,6.90
2017-08-25T22:15:43.985Z,6.97
2017-08-25T22:18:10.757Z,6.60
2017-08-25T22:20:37.559Z,6.87
2017-08-25T22:23:04.373Z,7.13
2017-08-25T22:25:31.211Z,7.63
2017-08-25T22:27:58.087Z,6.87
2017-08-25T22:30:24.944Z,6.50
2017-08-25T22:32:51.786Z,7.20
2017-08-25T22:35:18.635Z,6.90
2017-08-25T22:37:45.462Z,7.67
2017-08-25T22:40:12.281Z,7.50
2017-08-25T22:42:39.074Z,8.03
2017-08-25T22:45:05.943Z,7.80
2017-08-25T22:47:32.706Z,7.87
2017-08-25T22:49:59.501Z,7.60
2017-08-25T22:52:26.367Z,7.17
2017-08-25T22:54:53.244Z,7.67
2017-08-25T22:57:20.057Z,7.50
2017-08-25T22:59:46.907Z,7.47
2017-08-25T23:02:13.711Z,7.03
2017-08-25T23:04:40.535Z,6.53
2017-08-25T23:07:07.385Z,6.80
2017-08-25T23:09:34.196Z,6.90
2017-08-25T23:12:01.000Z,6.70
2017-08-25T23:14:27.883Z,7.67
2017-08-25T23:16:54.701Z,6.63
2017-08-25T23:19:21.512Z,7.00
2017-08-25T23:21:48.409Z,7.13
2017-08-25T23:24:15.253Z,7.10
2017-08-25T23:26:42.066Z,6.73
2017-08-25T23:29:08.925Z,6.60
2017-08-25T23:31:35.747Z,7.00
2017-08-25T23:34:02.513Z,7.20
2017-08-25T23:36:29.321Z,7.20
2017-08-25T23:38:56.152Z,7.10
2017-08-25T23:41:22.921Z,7.07
2017-08-25T23:43:49.806Z,7.57
2017-08-25T23:46:16.643Z,8.03
2017-08-25T23:48:43.445Z,7.33
2017-08-25T23:51:10.296Z,7.57
2017-08-25T23:53:37.131Z,7.97
2017-08-25T23:56:03.951Z,8.00
2017-08-25T23:58:30.781Z,7.73
